Time;durP1;ratioP1;P1;durP2;ratioP2;P2;SDS_P1;SDS_P2;PMS_P1;PMS_P2;Temp;Humidity;BMP_temperature;BMP_pressure;BME280_temperature;BME280_humidity;BME280_pressure;Samples;Min_cycle;Max_cycle;Signal;HPM_P1;HPM_P2
2024/02/02 00:01:51;;;;;;;;;;;;;;;-0.68;73.86;101661.55;107525;1254;108438;-66
2024/02/02 00:04:19;;;;;;;;;;;;;;;-0.63;74.56;101671.30;107576;1253;97834;-66
2024/02/02 00:06:48;;;;;;;;;;;;;;;-0.58;74.44;101671.17;107650;1254;98421;-66
2024/02/02 00:09:16;;;;;;;;;;;;;;;-0.53;74.71;101671.89;107627;1251;111106;-65
2024/02/02 00:11:45;;;;;;;;;;;;;;;-0.49;74.37;101668.98;107544;1251;107518;-66
2024/02/02 00:14:14;;;;;;;;;;;;;;;-0.44;74.69;101667.06;107581;1251;108256;-66
2024/02/02 00:16:42;;;;;;;;;;;;;;;-0.38;74.94;101669.71;107553;1251;97829;-67
2024/02/02 00:19:10;;;;;;;;;;;;;;;-0.31;74.88;101671.80;107581;1251;97717;-66
2024/02/02 00:21:39;;;;;;;;;;;;;;;-0.25;74.96;101669.71;107637;1251;111885;-66
2024/02/02 00:24:07;;;;;;;;;;;;;;;-0.20;75.00;101666.20;107601;1251;108525;-66
2024/02/02 00:26:35;;;;;;;;;;;;;;;-0.16;74.77;101667.66;107530;1251;108300;-66
2024/02/02 00:29:04;;;;;;;;;;;;;;;-0.13;75.07;101672.36;107552;1254;97945;-67
2024/02/02 00:31:32;;;;;;;;;;;;;;;-0.13;75.27;101673.61;107610;1254;97713;-66
2024/02/02 00:34:00;;;;;;;;;;;;;;;-0.11;75.20;101672.65;107549;1253;112760;-66
2024/02/02 00:36:28;;;;;;;;;;;;;;;-0.08;75.22;101673.44;107601;1254;108707;-66
2024/02/02 00:38:57;;;;;;;;;;;;;;;-0.06;75.13;101674.27;107588;1253;108715;-66
2024/02/02 00:41:25;;;;;;;;;;;;;;;-0.07;74.78;101675.36;107574;1254;97902;-66
2024/02/02 00:43:54;;;;;;;;;;;;;;;-0.09;74.95;101673.98;107611;1256;97856;-66
2024/02/02 00:46:22;;;;;;;;;;;;;;;-0.10;74.72;101673.48;107610;1253;112376;-67
2024/02/02 00:48:50;;;;;;;;;;;;;;;-0.09;74.83;101675.23;107567;1254;107524;-66
2024/02/02 00:51:19;;;;;;;;;;;;;;;-0.08;75.05;101676.80;107595;1254;108209;-65
2024/02/02 00:53:47;;;;;;;;;;;;;;;-0.11;74.98;101675.28;107592;1252;97842;-66
2024/02/02 00:56:15;;;;;;;;;;;;;;;-0.12;75.34;101671.26;107562;1254;97857;-66
2024/02/02 00:58:44;;;;;;;;;;;;;;;-0.12;75.12;101669.51;107597;1254;111782;-67
2024/02/02 01:01:12;;;;;;;;;;;;;;;-0.14;75.20;101669.94;107611;1253;107899;-67
2024/02/02 01:03:40;;;;;;;;;;;;;;;-0.19;75.31;101668.28;107612;1254;107856;-66
2024/02/02 01:06:09;;;;;;;;;;;;;;;-0.23;75.43;101661.55;107539;1254;97983;-66
2024/02/02 01:08:38;;;;;;;;;;;;;;;-0.26;75.60;101669.20;107553;1254;97902;-66
2024/02/02 01:11:06;;;;;;;;;;;;;;;-0.28;77.18;101674.20;107534;1254;111217;-66
2024/02/02 01:13:34;;;;;;;;;;;;;;;-0.29;77.66;101669.11;107613;1254;107659;-68
2024/02/02 01:16:02;;;;;;;;;;;;;;;-0.28;77.10;101663.09;107570;1253;108857;-67
2024/02/02 01:18:31;;;;;;;;;;;;;;;-0.27;76.81;101665.01;107556;1254;97916;-66
2024/02/02 01:20:59;;;;;;;;;;;;;;;-0.31;76.54;101667.41;107571;1254;97924;-66
2024/02/02 01:23:27;;;;;;;;;;;;;;;-0.41;75.97;101675.61;107623;1254;111380;-65
2024/02/02 01:25:55;;;;;;;;;;;;;;;-0.48;76.07;101673.36;107580;1256;107747;-65
2024/02/02 01:28:24;;;;;;;;;;;;;;;-0.53;76.17;101667.12;107574;1255;108177;-67
2024/02/02 01:30:52;;;;;;;;;;;;;;;-0.60;76.47;101663.45;107634;1251;97899;-67
2024/02/02 01:33:21;;;;;;;;;;;;;;;-0.63;76.68;101654.91;107582;1251;97918;-65
2024/02/02 01:35:49;;;;;;;;;;;;;;;-0.61;76.80;101654.87;107607;1252;110619;-66
2024/02/02 01:38:18;;;;;;;;;;;;;;;-0.59;76.52;101651.46;107624;1251;106687;-66
2024/02/02 01:40:46;;;;;;;;;;;;;;;-0.64;76.28;101653.35;107557;1253;108295;-67
2024/02/02 01:43:14;;;;;;;;;;;;;;;-0.68;76.18;101654.31;107578;1251;97859;-67
2024/02/02 01:45:42;;;;;;;;;;;;;;;-0.73;75.90;101655.86;107571;1251;97912;-66
2024/02/02 01:48:11;;;;;;;;;;;;;;;-0.79;75.77;101652.52;107560;1253;112040;-66
2024/02/02 01:50:39;;;;;;;;;;;;;;;-0.84;75.74;101653.17;107615;1251;108449;-66
2024/02/02 01:53:08;;;;;;;;;;;;;;;-0.88;76.02;101651.88;107496;1251;107752;-66
2024/02/02 01:55:36;;;;;;;;;;;;;;;-0.92;76.04;101652.34;107671;1251;97863;-67
2024/02/02 01:58:04;;;;;;;;;;;;;;;-0.97;75.71;101656.85;107648;1251;98477;-67
2024/02/02 02:00:35;;;;;;;;;;;;;;;-1.00;75.76;101654.98;107602;1251;111230;-66
2024/02/02 02:03:04;;;;;;;;;;;;;;;-1.03;75.71;101654.20;107620;1252;108044;-67
2024/02/02 02:05:32;;;;;;;;;;;;;;;-1.06;75.67;101652.70;107629;1251;108224;-66
2024/02/02 02:08:00;;;;;;;;;;;;;;;-1.10;75.32;101649.08;107534;1251;97816;-66
2024/02/02 02:10:29;;;;;;;;;;;;;;;-1.13;75.38;101647.25;107588;1254;97845;-66
2024/02/02 02:12:58;;;;;;;;;;;;;;;-1.14;75.56;101645.14;107640;1250;111524;-66
2024/02/02 02:15:26;;;;;;;;;;;;;;;-1.10;75.60;101646.62;107549;1254;106314;-66
2024/02/02 02:17:54;;;;;;;;;;;;;;;-1.08;75.61;101647.48;107630;1251;109414;-68
2024/02/02 02:20:25;;;;;;;;;;;;;;;-1.08;75.69;101647.81;107622;1251;97850;-66
2024/02/02 02:22:54;;;;;;;;;;;;;;;-1.08;75.77;101647.12;107656;1254;97834;-66
2024/02/02 02:25:23;;;;;;;;;;;;;;;-1.06;76.01;101654.45;107580;1254;111450;-68
2024/02/02 02:27:51;;;;;;;;;;;;;;;-1.05;75.95;101649.86;107662;1251;108082;-69
2024/02/02 02:30:19;;;;;;;;;;;;;;;-1.05;75.97;101649.67;107593;1251;107820;-64
2024/02/02 02:32:48;;;;;;;;;;;;;;;-1.04;75.85;101645.96;107567;1252;97845;-65
2024/02/02 02:35:17;;;;;;;;;;;;;;;-1.03;76.22;101650.15;107629;1251;97857;-66
2024/02/02 02:37:45;;;;;;;;;;;;;;;-1.01;76.31;101651.86;107576;1254;111901;-67
2024/02/02 02:40:13;;;;;;;;;;;;;;;-1.02;75.98;101652.59;107591;1254;107965;-67
2024/02/02 02:42:41;;;;;;;;;;;;;;;-1.03;76.06;101649.60;107632;1250;107775;-67
2024/02/02 02:45:09;;;;;;;;;;;;;;;-1.01;76.36;101655.21;107522;1251;97832;-66
2024/02/02 02:47:40;;;;;;;;;;;;;;;-0.96;76.72;101654.55;107562;1254;97831;-67
2024/02/02 02:50:09;;;;;;;;;;;;;;;-0.93;76.50;101654.64;107607;1256;110386;-66
2024/02/02 02:52:38;;;;;;;;;;;;;;;-0.92;76.39;101650.93;107637;1253;108597;-66
2024/02/02 02:55:06;;;;;;;;;;;;;;;-0.95;76.96;101648.17;107586;1254;108239;-66
2024/02/02 02:57:34;;;;;;;;;;;;;;;-0.93;77.31;101647.60;107594;1251;97827;-66
2024/02/02 03:00:03;;;;;;;;;;;;;;;-0.88;77.47;101652.77;107620;1251;97848;-66
2024/02/02 03:02:31;;;;;;;;;;;;;;;-0.84;77.26;101656.52;107636;1251;110421;-67
2024/02/02 03:05:00;;;;;;;;;;;;;;;-0.80;77.52;101655.89;107579;1254;107890;-67
2024/02/02 03:07:28;;;;;;;;;;;;;;;-0.78;77.39;101653.20;107610;1256;107022;-66
2024/02/02 03:09:57;;;;;;;;;;;;;;;-0.75;77.47;101652.39;107549;1254;97819;-67
2024/02/02 03:12:25;;;;;;;;;;;;;;;-0.71;77.39;101654.75;107551;1254;97831;-65
2024/02/02 03:14:54;;;;;;;;;;;;;;;-0.69;77.60;101651.19;107658;1251;111304;-65
2024/02/02 03:17:22;;;;;;;;;;;;;;;-0.64;77.63;101656.33;107565;1251;108264;-65
2024/02/02 03:19:50;;;;;;;;;;;;;;;-0.59;77.75;101660.25;107568;1256;107394;-65
2024/02/02 03:22:19;;;;;;;;;;;;;;;-0.54;77.75;101661.70;107656;1252;97917;-66
2024/02/02 03:24:47;;;;;;;;;;;;;;;-0.51;77.58;101662.50;107627;1251;97725;-66
2024/02/02 03:27:15;;;;;;;;;;;;;;;-0.48;77.66;101668.58;107662;1254;111449;-65
2024/02/02 03:29:44;;;;;;;;;;;;;;;-0.43;77.67;101671.11;107549;1251;107950;-64
2024/02/02 03:32:12;;;;;;;;;;;;;;;-0.39;77.82;101672.77;107553;1251;107186;-66
2024/02/02 03:34:40;;;;;;;;;;;;;;;-0.37;77.69;101676.93;107618;1251;98274;-66
2024/02/02 03:37:09;;;;;;;;;;;;;;;-0.33;77.89;101676.46;107575;1251;97932;-65
2024/02/02 03:39:37;;;;;;;;;;;;;;;-0.27;78.12;101675.58;107622;1251;111719;-64
2024/02/02 03:42:06;;;;;;;;;;;;;;;-0.24;78.18;101673.19;107559;1255;107963;-64
2024/02/02 03:44:34;;;;;;;;;;;;;;;-0.20;78.22;101673.27;107565;1251;108402;-64
2024/02/02 03:47:02;;;;;;;;;;;;;;;-0.15;78.05;101674.90;107507;1251;97831;-65
2024/02/02 03:49:33;;;;;;;;;;;;;;;-0.12;77.96;101675.33;107583;1251;97919;-65
2024/02/02 03:52:05;;;;;;;;;;;;;;;-0.11;78.01;101675.81;107615;1251;111979;-65
2024/02/02 03:54:34;;;;;;;;;;;;;;;-0.08;77.99;101676.27;107574;1253;107540;-65
2024/02/02 03:57:02;;;;;;;;;;;;;;;-0.07;77.80;101675.87;107570;1250;108616;-65
2024/02/02 03:59:30;;;;;;;;;;;;;;;-0.04;77.91;101672.25;107553;1251;97732;-65
2024/02/02 04:02:00;;;;;;;;;;;;;;;-0.05;77.75;101674.74;107560;1254;97841;-64
2024/02/02 04:04:28;;;;;;;;;;;;;;;-0.07;77.38;101679.58;107528;1254;111899;-64
2024/02/02 04:06:57;;;;;;;;;;;;;;;-0.09;77.22;101679.63;107564;1251;107862;-65
2024/02/02 04:09:25;;;;;;;;;;;;;;;-0.11;77.40;101680.23;107542;1256;108781;-64
2024/02/02 04:11:53;;;;;;;;;;;;;;;-0.13;77.47;101682.56;107543;1254;97834;-64
2024/02/02 04:14:22;;;;;;;;;;;;;;;-0.13;77.76;101685.77;107652;1253;97812;-65
2024/02/02 04:16:50;;;;;;;;;;;;;;;-0.11;78.03;101686.77;107589;1251;112345;-64
2024/02/02 04:19:20;;;;;;;;;;;;;;;-0.09;77.97;101683.16;107561;1256;108497;-64
2024/02/02 04:21:49;;;;;;;;;;;;;;;-0.04;78.06;101687.79;107564;1251;106861;-64
2024/02/02 04:24:18;;;;;;;;;;;;;;;-0.04;77.68;101689.89;107489;1254;97710;-65
2024/02/02 04:26:46;;;;;;;;;;;;;;;-0.02;77.91;101694.23;107555;1251;97799;-64
2024/02/02 04:29:14;;;;;;;;;;;;;;;0.01;77.85;101693.28;107541;1251;110610;-65
2024/02/02 04:31:43;;;;;;;;;;;;;;;0.03;78.17;101693.95;107541;1254;108110;-65
2024/02/02 04:34:11;;;;;;;;;;;;;;;0.02;77.76;101697.33;107503;1256;108325;-65
2024/02/02 04:36:40;;;;;;;;;;;;;;;0.00;77.55;101699.66;107516;1250;97814;-66
2024/02/02 04:39:08;;;;;;;;;;;;;;;-0.03;77.03;101701.31;107506;1251;97932;-65
2024/02/02 04:41:37;;;;;;;;;;;;;;;-0.05;76.96;101705.09;107578;1251;111385;-64
2024/02/02 04:44:05;;;;;;;;;;;;;;;-0.08;77.04;101705.55;107551;1254;107816;-64
2024/02/02 04:46:33;;;;;;;;;;;;;;;-0.10;76.89;101709.48;107611;1251;107066;-64
2024/02/02 04:49:02;;;;;;;;;;;;;;;-0.10;77.26;101709.47;107533;1257;97856;-64
2024/02/02 04:51:30;;;;;;;;;;;;;;;-0.07;77.90;101716.45;107524;1255;97706;-64
2024/02/02 04:53:58;;;;;;;;;;;;;;;-0.04;77.92;101716.52;107610;1257;110948;-63
2024/02/02 04:56:27;;;;;;;;;;;;;;;-0.01;77.95;101722.64;107558;1251;108239;-64
2024/02/02 04:58:55;;;;;;;;;;;;;;;0.04;78.12;101715.79;107544;1256;108216;-64
2024/02/02 05:01:24;;;;;;;;;;;;;;;0.11;78.12;101720.14;107512;1254;97828;-64
2024/02/02 05:03:53;;;;;;;;;;;;;;;0.20;78.47;101724.13;107568;1251;97838;-65
2024/02/02 05:06:22;;;;;;;;;;;;;;;0.30;78.68;101721.17;107539;1251;112051;-65
2024/02/02 05:08:50;;;;;;;;;;;;;;;0.38;78.56;101724.98;107567;1250;107401;-66
2024/02/02 05:11:18;;;;;;;;;;;;;;;0.50;79.15;101728.52;107634;1251;108252;-65
2024/02/02 05:13:46;;;;;;;;;;;;;;;0.64;79.03;101730.00;107585;1251;97907;-65
2024/02/02 05:16:14;;;;;;;;;;;;;;;0.74;78.83;101726.36;107538;1251;97820;-65
2024/02/02 05:18:43;;;;;;;;;;;;;;;0.82;78.40;101727.86;107551;1251;110740;-65
2024/02/02 05:21:12;;;;;;;;;;;;;;;0.90;78.15;101732.54;107525;1257;108505;-64
2024/02/02 05:23:40;;;;;;;;;;;;;;;0.97;77.96;101740.44;107547;1256;107980;-64
2024/02/02 05:26:17;;;;;;;;;;;;;;;1.04;77.58;101741.46;107503;1251;97850;-63
2024/02/02 05:28:45;;;;;;;;;;;;;;;1.09;77.89;101749.06;107620;1251;97917;-63
2024/02/02 05:31:13;;;;;;;;;;;;;;;1.13;77.37;101750.15;107563;1253;111779;-63
2024/02/02 05:33:43;;;;;;;;;;;;;;;1.17;76.86;101754.80;107605;1251;108658;-64
2024/02/02 05:36:14;;;;;;;;;;;;;;;1.18;76.64;101758.30;107559;1251;108308;-63
2024/02/02 05:38:43;;;;;;;;;;;;;;;1.18;76.58;101763.62;107584;1251;97879;-64
2024/02/02 05:41:11;;;;;;;;;;;;;;;1.17;76.46;101771.41;107594;1256;97859;-63
2024/02/02 05:43:39;;;;;;;;;;;;;;;1.19;76.40;101774.35;107553;1255;111599;-64
2024/02/02 05:46:08;;;;;;;;;;;;;;;1.21;76.15;101779.92;107634;1257;108234;-64
2024/02/02 05:48:36;;;;;;;;;;;;;;;1.28;75.91;101787.48;107488;1256;108168;-64
2024/02/02 05:51:05;;;;;;;;;;;;;;;1.35;75.71;101788.51;107542;1251;97859;-63
2024/02/02 05:53:33;;;;;;;;;;;;;;;1.37;75.45;101789.33;107541;1254;97723;-64
2024/02/02 05:56:01;;;;;;;;;;;;;;;1.41;75.40;101792.90;107489;1254;111751;-63
2024/02/02 05:58:30;;;;;;;;;;;;;;;1.48;74.88;101798.67;107559;1251;108020;-64
2024/02/02 06:00:58;;;;;;;;;;;;;;;1.52;74.91;101800.27;107490;1251;108544;-64
2024/02/02 06:03:26;;;;;;;;;;;;;;;1.54;74.36;101804.27;107488;1254;97738;-65
2024/02/02 06:05:55;;;;;;;;;;;;;;;1.59;74.30;101803.95;107498;1254;99165;-64
2024/02/02 06:08:23;;;;;;;;;;;;;;;1.62;73.99;101802.98;107504;1254;111609;-64
2024/02/02 06:10:52;;;;;;;;;;;;;;;1.67;74.27;101804.92;107510;1251;107682;-65
2024/02/02 06:13:20;;;;;;;;;;;;;;;1.69;73.89;101804.29;107502;1251;107386;-64
2024/02/02 06:15:48;;;;;;;;;;;;;;;1.73;73.84;101811.59;107447;1251;97913;-64
2024/02/02 06:18:16;;;;;;;;;;;;;;;1.76;73.87;101810.60;107456;1253;97813;-64
2024/02/02 06:20:45;;;;;;;;;;;;;;;1.80;73.58;101815.25;107488;1251;110915;-65
2024/02/02 06:23:13;;;;;;;;;;;;;;;1.83;73.57;101812.30;107440;1251;108696;-64
2024/02/02 06:25:42;;;;;;;;;;;;;;;1.88;73.52;101810.55;107478;1251;108145;-64
2024/02/02 06:28:10;;;;;;;;;;;;;;;1.94;73.55;101810.36;107480;1251;97757;-64
2024/02/02 06:30:47;;;;;;;;;;;;;;;2.00;73.51;101807.31;107377;1254;97732;-65
2024/02/02 06:33:16;;;;;;;;;;;;;;;2.09;73.23;101812.64;107386;1254;112402;-65
2024/02/02 06:35:45;;;;;;;;;;;;;;;2.14;73.20;101810.34;107398;1254;108665;-65
2024/02/02 06:38:13;;;;;;;;;;;;;;;2.17;72.84;101810.74;107477;1254;108191;-64
2024/02/02 06:40:41;;;;;;;;;;;;;;;2.21;72.64;101814.52;107395;1254;97933;-64
2024/02/02 06:43:11;;;;;;;;;;;;;;;2.22;72.52;101812.16;107404;1255;98513;-65
2024/02/02 06:45:39;;;;;;;;;;;;;;;2.19;72.36;101813.70;107316;1253;110210;-65
2024/02/02 06:48:11;;;;;;;;;;;;;;;2.17;72.42;101815.52;107491;1254;108052;-65
2024/02/02 06:50:39;;;;;;;;;;;;;;;2.15;72.45;101819.17;107394;1254;107563;-65
2024/02/02 06:53:08;;;;;;;;;;;;;;;2.13;72.29;101822.77;107416;1251;97832;-65
2024/02/02 06:55:36;;;;;;;;;;;;;;;2.11;72.28;101823.18;107416;1254;97825;-64
2024/02/02 06:58:11;;;;;;;;;;;;;;;2.10;72.52;101825.00;107432;1254;110552;-65
2024/02/02 07:00:40;;;;;;;;;;;;;;;2.11;72.67;101825.48;107476;1254;107200;-65
2024/02/02 07:03:08;;;;;;;;;;;;;;;2.14;72.55;101823.08;107435;1251;107856;-65
2024/02/02 07:05:37;;;;;;;;;;;;;;;2.17;72.62;101823.86;107304;1257;97945;-64
2024/02/02 07:08:06;;;;;;;;;;;;;;;2.20;72.56;101825.34;107468;1252;97858;-65
2024/02/02 07:10:35;;;;;;;;;;;;;;;2.24;72.38;101822.73;107461;1254;111811;-65
2024/02/02 07:13:03;;;;;;;;;;;;;;;2.29;72.37;101826.25;107493;1254;107672;-64
2024/02/02 07:15:37;;;;;;;;;;;;;;;2.35;72.36;101829.23;107507;1254;108393;-64
2024/02/02 07:18:18;;;;;;;;;;;;;;;2.42;72.24;101831.42;107560;1254;97831;-64
2024/02/02 07:20:46;;;;;;;;;;;;;;;2.51;72.04;101832.34;107530;1252;97847;-63
2024/02/02 07:23:24;;;;;;;;;;;;;;;2.61;71.64;101833.38;107566;1254;111462;-65
2024/02/02 07:25:53;;;;;;;;;;;;;;;2.73;71.37;101832.21;107583;1254;108330;-66
2024/02/02 07:28:31;;;;;;;;;;;;;;;2.86;71.03;101836.52;107538;1254;108433;-64
2024/02/02 07:30:59;;;;;;;;;;;;;;;2.98;70.72;101832.86;107520;1251;97831;-65
2024/02/02 07:33:37;;;;;;;;;;;;;;;3.11;70.65;101836.39;107511;1251;97710;-64
2024/02/02 07:36:08;;;;;;;;;;;;;;;3.29;69.92;101837.28;107444;1250;111536;-65
2024/02/02 07:38:40;;;;;;;;;;;;;;;3.45;70.06;101841.79;107543;1254;108756;-64
2024/02/02 07:41:09;;;;;;;;;;;;;;;3.60;69.85;101840.79;107387;1251;108115;-65
2024/02/02 07:43:38;;;;;;;;;;;;;;;3.70;68.92;101843.04;107425;1251;97925;-64
2024/02/02 07:46:07;;;;;;;;;;;;;;;3.76;68.26;101842.78;107514;1254;97820;-65
2024/02/02 07:48:40;;;;;;;;;;;;;;;3.81;68.38;101843.10;107540;1251;112762;-65
2024/02/02 07:51:09;;;;;;;;;;;;;;;3.84;67.50;101843.15;107499;1251;108357;-65
2024/02/02 07:53:38;;;;;;;;;;;;;;;3.84;67.32;101843.69;107485;1251;108777;-66
2024/02/02 07:56:08;;;;;;;;;;;;;;;3.82;67.35;101840.23;107449;1251;97967;-65
2024/02/02 07:58:36;;;;;;;;;;;;;;;3.78;67.66;101844.48;107586;1251;97730;-65
2024/02/02 08:01:05;;;;;;;;;;;;;;;3.75;67.58;101844.73;107576;1251;111654;-66
2024/02/02 08:03:34;;;;;;;;;;;;;;;3.76;67.26;101844.91;107469;1253;108033;-64
2024/02/02 08:06:03;;;;;;;;;;;;;;;3.78;67.19;101849.44;107439;1254;107828;-64
2024/02/02 08:08:32;;;;;;;;;;;;;;;3.83;67.23;101844.45;107479;1251;97850;-65
2024/02/02 08:11:00;;;;;;;;;;;;;;;3.89;67.17;101847.88;107492;1254;97841;-65
2024/02/02 08:13:30;;;;;;;;;;;;;;;3.95;66.52;101846.56;107459;1251;111036;-64
2024/02/02 08:15:59;;;;;;;;;;;;;;;4.02;66.16;101845.38;107468;1251;107950;-66
2024/02/02 08:18:27;;;;;;;;;;;;;;;4.13;66.48;101848.48;107452;1254;108652;-65
2024/02/02 08:20:57;;;;;;;;;;;;;;;4.20;65.84;101848.33;107412;1256;97838;-64
2024/02/02 08:23:25;;;;;;;;;;;;;;;4.17;65.27;101855.37;107379;1251;97940;-64
2024/02/02 08:25:54;;;;;;;;;;;;;;;4.15;65.33;101853.88;107463;1251;112046;-65
2024/02/02 08:28:22;;;;;;;;;;;;;;;4.18;65.10;101858.18;107454;1251;108476;-64
2024/02/02 08:30:50;;;;;;;;;;;;;;;4.25;64.88;101856.80;107472;1251;107842;-64
2024/02/02 08:33:20;;;;;;;;;;;;;;;4.40;65.00;101861.30;107470;1254;97917;-64
2024/02/02 08:35:48;;;;;;;;;;;;;;;4.53;64.13;101862.11;107475;1251;97858;-65
2024/02/02 08:38:17;;;;;;;;;;;;;;;4.60;64.41;101861.45;107470;1251;111701;-65
2024/02/02 08:40:48;;;;;;;;;;;;;;;4.62;64.03;101867.20;107492;1251;106990;-66
2024/02/02 08:43:17;;;;;;;;;;;;;;;4.75;63.62;101863.10;107510;1253;107501;-65
2024/02/02 08:46:04;;;;;;;;;;;;;;;4.93;63.24;101862.77;106714;1254;1062005;-64
2024/02/02 08:48:37;;;;;;;;;;;;;;;5.15;62.76;101867.62;107472;1251;97832;-65
2024/02/02 08:51:20;;;;;;;;;;;;;;;5.24;62.60;101869.66;107433;1250;112029;-65
2024/02/02 08:53:49;;;;;;;;;;;;;;;5.22;61.20;101874.05;107418;1251;108065;-64
2024/02/02 08:56:17;;;;;;;;;;;;;;;5.28;61.55;101883.34;107473;1250;108202;-65
2024/02/02 08:58:45;;;;;;;;;;;;;;;5.42;61.54;101883.55;107419;1251;97866;-64
2024/02/02 09:01:32;;;;;;;;;;;;;;;5.60;61.38;101884.29;107388;1251;97998;-64
2024/02/02 09:04:01;;;;;;;;;;;;;;;5.78;60.27;101883.20;107411;1251;112035;-64
2024/02/02 09:06:29;;;;;;;;;;;;;;;5.96;60.52;101874.80;107394;1254;107141;-65
2024/02/02 09:09:00;;;;;;;;;;;;;;;6.16;59.55;101880.60;107450;1253;108586;-65
2024/02/02 09:11:28;;;;;;;;;;;;;;;6.45;58.43;101874.81;107501;1253;97838;-65
2024/02/02 09:14:04;;;;;;;;;;;;;;;6.90;57.76;101875.55;107404;1251;97822;-65
2024/02/02 09:16:38;;;;;;;;;;;;;;;7.57;56.36;101872.15;107446;1251;112042;-66
2024/02/02 09:19:13;;;;;;;;;;;;;;;8.42;54.16;101874.44;107430;1251;106834;-65
2024/02/02 09:21:41;;;;;;;;;;;;;;;8.97;51.30;101865.85;107429;1251;108035;-65
2024/02/02 09:24:12;;;;;;;;;;;;;;;9.30;49.24;101870.14;107390;1253;97930;-65
2024/02/02 09:26:40;;;;;;;;;;;;;;;9.64;48.43;101865.23;107438;1250;97818;-64
2024/02/02 09:29:09;;;;;;;;;;;;;;;10.08;47.82;101860.12;107399;1252;110655;-66
2024/02/02 09:31:38;;;;;;;;;;;;;;;10.39;46.42;101860.98;107449;1254;108319;-65
2024/02/02 09:34:08;;;;;;;;;;;;;;;10.54;45.23;101857.09;107534;1251;106394;-65
2024/02/02 09:36:39;;;;;;;;;;;;;;;10.96;46.09;101857.70;107434;1251;97846;-65
2024/02/02 09:39:28;;;;;;;;;;;;;;;11.38;44.91;101856.61;107488;1251;97810;-65
2024/02/02 09:42:00;;;;;;;;;;;;;;;11.71;43.61;101854.14;107459;1251;110247;-65
2024/02/02 09:44:32;;;;;;;;;;;;;;;12.26;44.60;101854.21;107463;1251;108469;-66
2024/02/02 09:47:18;;;;;;;;;;;;;;;12.82;43.93;101852.56;107483;1251;106586;-66
2024/02/02 09:49:50;;;;;;;;;;;;;;;12.99;41.10;101854.54;107454;1251;97912;-66
2024/02/02 09:52:23;;;;;;;;;;;;;;;13.32;40.86;101847.21;107488;1251;97829;-66
2024/02/02 09:55:04;;;;;;;;;;;;;;;12.63;41.84;101851.20;107527;1250;112474;-65
2024/02/02 09:57:38;;;;;;;;;;;;;;;12.18;42.28;101842.45;107502;1251;108795;-63
2024/02/02 10:00:07;;;;;;;;;;;;;;;11.61;42.07;101851.49;107471;1251;108021;-67
2024/02/02 10:02:55;;;;;;;;;;;;;;;11.02;42.35;101851.17;107488;1251;97873;-65
2024/02/02 10:05:27;;;;;;;;;;;;;;;10.42;43.72;101858.14;107470;1251;97717;-66
2024/02/02 10:08:13;;;;;;;;;;;;;;;10.33;44.40;101852.44;107439;1251;112116;-65
2024/02/02 10:10:53;;;;;;;;;;;;;;;11.01;44.83;101849.96;107551;1251;108680;-65
2024/02/02 10:13:39;;;;;;;;;;;;;;;12.07;44.44;101845.30;107423;1251;107323;-68
2024/02/02 10:16:10;;;;;;;;;;;;;;;12.63;41.59;101840.91;107401;1254;97830;-65
2024/02/02 10:18:57;;;;;;;;;;;;;;;12.82;41.37;101846.42;107468;1254;97860;-66
2024/02/02 10:21:27;;;;;;;;;;;;;;;13.16;41.37;101841.27;107433;1250;112032;-65
2024/02/02 10:24:06;;;;;;;;;;;;;;;13.58;40.66;101842.00;107444;1251;107571;-65
2024/02/02 10:26:56;;;;;;;;;;;;;;;13.74;40.40;101843.74;107402;1251;107910;-65
2024/02/02 10:29:27;;;;;;;;;;;;;;;13.25;39.00;101838.92;107501;1251;97922;-65
2024/02/02 10:32:02;;;;;;;;;;;;;;;12.65;39.70;101840.18;107368;1254;97934;-67
2024/02/02 10:34:42;;;;;;;;;;;;;;;12.10;40.62;101833.58;107452;1251;111376;-66
2024/02/02 10:37:26;;;;;;;;;;;;;;;11.50;41.43;101838.44;107494;1251;108613;-65
2024/02/02 10:39:54;;;;;;;;;;;;;;;10.93;42.35;101838.70;107452;1251;108243;-66
2024/02/02 10:42:42;;;;;;;;;;;;;;;10.23;42.33;101838.80;107447;1251;97898;-65
2024/02/02 10:45:26;;;;;;;;;;;;;;;9.67;43.28;101841.20;107456;1256;97913;-66
2024/02/02 10:48:18;;;;;;;;;;;;;;;9.44;43.83;101838.58;107463;1250;112242;-63
2024/02/02 10:51:01;;;;;;;;;;;;;;;9.14;44.59;101840.91;107229;1251;108329;-64
2024/02/02 10:53:41;;;;;;;;;;;;;;;8.77;45.09;101842.59;107455;1251;107237;-65
2024/02/02 10:56:30;;;;;;;;;;;;;;;8.60;45.74;101848.98;107399;1251;97827;-65
2024/02/02 10:59:18;;;;;;;;;;;;;;;8.47;45.84;101851.79;107411;1254;97818;-64
2024/02/02 11:01:47;;;;;;;;;;;;;;;8.38;45.70;101852.36;107150;1251;112181;-64
2024/02/02 11:04:34;;;;;;;;;;;;;;;8.93;45.31;101847.98;107424;1251;107034;-65
2024/02/02 11:07:15;;;;;;;;;;;;;;;9.65;44.10;101849.77;107488;1254;108754;-65
2024/02/02 11:09:46;;;;;;;;;;;;;;;9.73;44.91;101843.12;107407;1251;97815;-64
2024/02/02 11:12:26;;;;;;;;;;;;;;;9.67;44.56;101842.99;107409;1251;98007;-64
2024/02/02 11:15:09;;;;;;;;;;;;;;;9.87;45.03;101838.77;107388;1251;112013;-66
2024/02/02 11:17:45;;;;;;;;;;;;;;;11.00;43.66;101836.40;107433;1251;107966;-65
2024/02/02 11:20:28;;;;;;;;;;;;;;;11.97;42.06;101837.62;107445;1251;107903;-64
2024/02/02 11:23:02;;;;;;;;;;;;;;;12.97;41.16;101839.27;107361;1250;98041;-64
2024/02/02 11:25:52;;;;;;;;;;;;;;;13.57;40.03;101835.94;107442;1254;97807;-64
2024/02/02 11:28:23;;;;;;;;;;;;;;;13.29;38.55;101837.77;107453;1251;111028;-65
2024/02/02 11:31:11;;;;;;;;;;;;;;;12.39;38.92;101839.52;107494;1251;108061;-64
2024/02/02 11:33:56;;;;;;;;;;;;;;;11.41;40.33;101837.55;107394;1251;107431;-65
2024/02/02 11:36:32;;;;;;;;;;;;;;;10.79;41.34;101843.15;107418;1250;97838;-64
2024/02/02 11:39:24;;;;;;;;;;;;;;;10.21;42.42;101850.21;107438;1251;97844;-63
2024/02/02 11:41:53;;;;;;;;;;;;;;;9.92;43.59;101846.50;107483;1254;112011;-63
2024/02/02 11:44:22;;;;;;;;;;;;;;;10.62;43.85;101841.65;107541;1251;107526;-65
2024/02/02 11:46:52;;;;;;;;;;;;;;;11.02;42.18;101835.56;107413;1250;108217;-64
2024/02/02 11:49:28;;;;;;;;;;;;;;;10.84;42.16;101842.59;107365;1253;97854;-64
2024/02/02 11:52:04;;;;;;;;;;;;;;;10.89;42.66;101845.30;107485;1253;97755;-65
2024/02/02 11:54:42;;;;;;;;;;;;;;;11.15;42.78;101848.59;107384;1251;112773;-63
2024/02/02 11:57:18;;;;;;;;;;;;;;;10.93;41.92;101845.50;107350;1254;108304;-65
2024/02/02 11:59:49;;;;;;;;;;;;;;;10.57;42.26;101851.36;107514;1251;107366;-66
2024/02/02 12:02:24;;;;;;;;;;;;;;;10.26;42.77;101854.77;107398;1253;97963;-65
2024/02/02 12:05:11;;;;;;;;;;;;;;;10.02;43.26;101853.14;107520;1251;97855;-66
2024/02/02 12:07:58;;;;;;;;;;;;;;;9.58;44.15;101860.43;107521;1254;111961;-65
2024/02/02 12:10:28;;;;;;;;;;;;;;;9.19;45.04;101870.85;107432;1251;108474;-64
2024/02/02 12:13:17;;;;;;;;;;;;;;;8.86;45.63;101867.62;107470;1250;107270;-66
2024/02/02 12:15:45;;;;;;;;;;;;;;;8.61;46.21;101867.55;107497;1253;97842;-63
2024/02/02 12:18:14;;;;;;;;;;;;;;;8.53;46.57;101865.90;107524;1254;97819;-65
2024/02/02 12:20:44;;;;;;;;;;;;;;;8.34;46.89;101866.71;107473;1251;110576;-63
2024/02/02 12:23:12;;;;;;;;;;;;;;;8.10;47.44;101869.06;107442;1250;107806;-64
2024/02/02 12:25:40;;;;;;;;;;;;;;;7.93;47.69;101869.38;107368;1251;107559;-64
2024/02/02 12:28:09;;;;;;;;;;;;;;;7.72;48.42;101871.67;107413;1251;98483;-63
2024/02/02 12:30:37;;;;;;;;;;;;;;;7.39;49.18;101878.91;107416;1254;97969;-64
2024/02/02 12:33:06;;;;;;;;;;;;;;;7.16;49.56;101878.95;107413;1254;111849;-64
2024/02/02 12:35:34;;;;;;;;;;;;;;;7.05;49.72;101879.20;107434;1254;107868;-64
2024/02/02 12:38:04;;;;;;;;;;;;;;;7.00;50.18;101873.27;107443;1254;108004;-64
2024/02/02 12:40:32;;;;;;;;;;;;;;;6.99;50.70;101868.50;107436;1251;97938;-63
2024/02/02 12:43:01;;;;;;;;;;;;;;;7.01;50.66;101865.87;107463;1253;97797;-64
2024/02/02 12:45:31;;;;;;;;;;;;;;;7.11;50.88;101870.48;107492;1251;113038;-64